Latest Weather Observations for Mackay Airport

IDQ60801

Issued at 7:05 pm EST Saturday 19 April 2014 (issued every 30 minutes, with the page automatically refreshed every 10 minutes)

About weather observations | Map of weather stations | Latest weather observations for QLD | Other Formats
Station Details ID: 033045 Name: MACKAY AERO Lat: -21.17 Lon: 149.18 Height: 4.7 m
Data from the previous 72 hours. | See also: Recent months at Mackay Airport
Date/Time
EST
Temp
°C
App
Temp
°C
Dew
Point
Rel
Hum
%
Delta-T
°C
Wind Press
QNH
hPa
Press
MSL
hPa
Rain
since 9 am
mm
Dir
 
Spd
km/h
Gust
km/h
Spd
kts
Gust
kts
19/07:00pm 23.1 24.8 18.4 75 3.0 NE 7 9 4 5 1015.3 - 0.0
19/06:30pm 24.2 25.9 18.4 70 3.7 NE 7 9 4 5 1015.0 - 0.0
19/06:00pm 24.6 26.1 18.8 70 3.7 NE 9 13 5 7 1014.6 1014.6 0.0
19/05:30pm 25.5 26.1 18.7 66 4.3 NE 13 15 7 8 1014.5 - 0.0
19/05:00pm 26.1 26.3 18.5 63 4.8 ENE 15 19 8 10 1014.4 - 0.0
19/04:30pm 26.5 26.6 18.4 61 5.1 ENE 15 19 8 10 1014.2 - 0.0
19/04:00pm 27.0 26.6 18.8 60 5.3 ENE 19 24 10 13 1014.0 - 0.0
19/03:30pm 27.3 27.1 18.6 59 5.6 ENE 17 22 9 12 1014.0 - 0.0
19/03:00pm 27.2 27.8 20.3 66 4.5 E 17 22 9 12 1014.2 1014.2 0.0
19/02:30pm 27.5 27.7 20.1 64 4.8 ENE 19 24 10 13 1014.4 - 0.0
19/02:00pm 27.3 26.9 19.4 62 5.1 ENE 20 28 11 15 1014.5 - 0.0
19/01:30pm 27.6 27.4 19.4 61 5.3 ENE 19 26 10 14 1014.9 - 0.0
19/01:00pm 27.2 27.0 19.3 62 5.1 E 19 22 10 12 1015.3 - 0.0
19/12:30pm 27.5 27.9 19.0 59 5.5 ENE 15 20 8 11 1015.7 - 0.0
19/12:00pm 27.3 27.4 19.1 61 5.3 E 17 22 9 12 1016.0 1016.0 0.0
19/11:30am 27.3 27.9 19.4 62 5.1 ENE 15 20 8 11 1016.4 - 0.0
19/11:00am 27.0 27.4 19.1 62 5.1 E 15 19 8 10 1016.8 - 0.0
19/10:30am 27.3 28.5 19.9 64 4.8 E 13 19 7 10 1017.2 - 0.0
19/10:00am 27.2 29.1 19.8 64 4.8 NE 9 15 5 8 1017.4 - 0.0
19/09:30am 25.9 29.4 21.1 75 3.2 SW 4 7 2 4 1017.5 - 0.0
19/09:00am 24.9 27.8 21.8 83 2.1 SW 9 13 5 7 1017.5 1017.5 0.0
19/08:30am 23.4 25.8 20.9 86 1.6 SW 9 11 5 6 1017.4 - 0.0
19/08:00am 22.2 24.4 20.5 90 1.1 WSW 9 11 5 6 1017.1 - 0.0
19/07:30am 21.2 23.8 20.0 93 0.8 NNE 6 13 3 7 1017.0 - 0.0
19/07:00am 19.9 22.1 19.2 96 0.4 NNE 6 7 3 4 1017.0 - 0.0
19/06:30am 19.0 22.0 18.5 97 0.3 CALM 0 6 0 3 1016.8 - 0.0
19/06:00am 18.8 20.4 18.3 97 0.3 NE 7 9 4 5 1016.3 1016.3 0.0
19/05:30am 18.9 20.6 18.4 97 0.3 NE 7 9 4 5 1016.2 - 0.0
19/05:00am 19.1 20.8 18.4 96 0.4 NE 7 9 4 5 1015.9 - 0.0
19/04:30am 19.1 20.8 18.4 96 0.4 NE 7 9 4 5 1015.7 - 0.0
19/04:00am 19.5 21.3 18.8 96 0.4 NE 7 9 4 5 1015.6 - 0.0
19/03:30am 19.5 21.0 18.8 96 0.4 NE 9 11 5 6 1015.5 - 0.0
19/03:00am 20.0 22.1 19.3 96 0.4 NE 7 7 4 4 1015.5 1015.5 0.0
19/02:30am 19.6 21.4 18.8 95 0.5 NE 7 9 4 5 1015.8 - 0.0
19/02:00am 19.9 21.9 19.1 95 0.5 NE 7 7 4 4 1015.9 - 0.0
19/01:30am 20.1 22.3 19.3 95 0.5 NE 6 7 3 4 1016.2 - 0.0
19/01:00am 20.2 22.3 19.4 95 0.5 NE 7 9 4 5 1016.4 - 0.0
19/12:30am 20.4 22.8 19.6 95 0.5 NE 6 7 3 4 1016.7 - 0.0
19/12:00am 20.7 23.1 19.7 94 0.6 NE 6 7 3 4 1016.8 1016.8 0.0
 
Date/Time
EST
Temp
°C
App
Temp
°C
Dew
Point
Rel
Hum
%
Delta-T
°C
Wind Press
QNH
hPa
Press
MSL
hPa
Rain
since 9 am
mm
Dir
 
Spd
km/h
Gust
km/h
Spd
kts
Gust
kts
18/11:30pm 20.6 22.4 19.6 94 0.6 NE 9 11 5 6 1016.9 - 0.0
18/11:00pm 20.8 23.4 19.3 91 0.9 NE 4 9 2 5 1016.8 - 0.0
18/10:30pm 21.5 24.5 20.0 91 1.0 NE 4 7 2 4 1017.0 - 0.0
18/10:00pm 21.9 24.6 20.2 90 1.1 NE 6 7 3 4 1017.0 - 0.0
18/09:30pm 22.3 25.1 20.4 89 1.2 NE 6 7 3 4 1016.9 - 0.0
18/09:00pm 22.4 24.9 20.3 88 1.4 NE 7 9 4 5 1016.8 1016.8 0.0
18/08:30pm 23.0 25.2 20.3 85 1.7 NE 9 11 5 6 1016.6 - 0.0
18/08:00pm 22.9 26.5 19.7 82 2.1 CALM 0 0 0 0 1016.5 - 0.0
18/07:30pm 24.4 27.5 19.5 74 3.1 NE 2 6 1 3 1016.0 - 0.0
18/07:00pm 25.1 27.5 20.1 74 3.2 N 7 11 4 6 1015.6 - 0.0
18/06:30pm 25.3 27.5 20.3 74 3.3 NE 9 11 5 6 1015.2 - 0.0
18/06:00pm 25.5 27.6 20.1 72 3.5 NE 9 13 5 7 1015.2 1015.2 0.0
18/05:30pm 25.7 27.2 19.8 70 3.8 NNE 11 15 6 8 1014.9 - 0.0
18/05:00pm 25.9 26.7 19.1 66 4.4 NE 13 17 7 9 1014.7 - 0.0
18/04:30pm 26.1 26.8 18.8 64 4.7 ENE 13 19 7 10 1014.6 - 0.0
18/04:00pm 26.9 27.2 19.5 64 4.8 ENE 17 22 9 12 1014.1 - 0.0
18/03:30pm 27.6 27.9 20.4 65 4.7 ENE 19 24 10 13 1013.8 - 0.0
18/03:00pm 27.1 27.1 19.7 64 4.8 ENE 19 24 10 13 1013.7 1013.7 0.0
18/02:30pm 27.6 27.7 19.9 63 5.0 ENE 19 28 10 15 1013.9 - 0.0
18/02:00pm 27.3 27.4 19.9 64 4.8 ENE 19 24 10 13 1014.1 - 0.0
18/01:30pm 27.8 27.8 19.8 61 5.2 ENE 19 26 10 14 1014.2 - 0.0
18/01:00pm 27.5 27.5 19.0 59 5.5 E 17 22 9 12 1014.6 - 0.0
18/12:30pm 27.4 28.1 20.5 66 4.5 E 17 22 9 12 1015.0 - 0.0
18/12:00pm 27.5 28.7 21.5 70 4.0 ENE 17 22 9 12 1015.4 1015.4 0.0
18/11:30am 27.8 29.4 22.1 71 3.8 E 17 24 9 13 1015.9 - 0.0
18/11:00am 27.2 28.8 20.8 68 4.2 E 13 19 7 10 1016.3 - 0.0
18/10:30am 26.7 28.2 20.5 69 4.1 E 13 17 7 9 1016.7 - 0.0
18/10:00am 27.4 29.6 21.2 69 4.1 E 11 17 6 9 1016.8 - 0.0
18/09:30am 26.6 29.6 20.9 71 3.8 S 6 13 3 7 1016.9 - 0.0
18/09:00am 25.3 28.4 21.0 77 2.8 SW 6 7 3 4 1017.0 1017.0 0.0
18/08:30am 24.5 27.8 21.8 85 1.8 SW 7 9 4 5 1016.9 - 0.0
18/08:00am 23.0 25.7 21.3 90 1.1 WSW 9 11 5 6 1016.8 - 0.0
18/07:30am 21.4 24.1 20.6 95 0.5 WSW 7 9 4 5 1016.7 - 0.0
18/07:00am 21.1 23.6 20.3 95 0.5 WSW 7 7 4 4 1016.5 - 0.0
18/06:30am 21.1 23.2 20.1 94 0.6 SW 9 11 5 6 1016.1 - 0.0
18/06:00am 21.3 24.0 20.3 94 0.6 SW 6 9 3 5 1015.8 1015.8 0.0
18/05:30am 21.5 24.1 20.5 94 0.6 SW 7 9 4 5 1015.5 - 0.0
18/05:00am 21.6 25.6 20.6 94 0.6 CALM 0 0 0 0 1015.4 - 0.0
18/04:30am 21.3 23.9 20.5 95 0.5 SW 7 9 4 5 1015.5 - 0.0
18/04:00am 21.3 23.2 20.5 95 0.5 SSW 11 15 6 8 1015.6 - 0.0
18/03:30am 21.1 22.9 20.4 96 0.5 NE 11 13 6 7 1015.6 - 0.0
18/03:00am 20.9 24.7 20.1 95 0.5 CALM 0 6 0 3 1015.3 1015.3 0.0
18/02:30am 20.9 23.5 20.1 95 0.5 NE 6 7 3 4 1015.7 - 0.0
18/02:00am 21.1 23.3 20.3 95 0.5 NE 9 11 5 6 1015.9 - 0.0
18/01:30am 21.1 23.0 19.7 92 0.9 NE 9 11 5 6 1016.0 - 0.0
18/01:00am 21.7 23.9 20.5 93 0.8 NE 9 11 5 6 1016.2 - 0.0
18/12:30am 21.7 24.4 20.3 92 0.9 NE 6 7 3 4 1016.5 - 0.0
18/12:00am 21.8 25.3 20.4 92 0.9 NE 2 7 1 4 1016.8 1016.8 0.0
 
Date/Time
EST
Temp
°C
App
Temp
°C
Dew
Point
Rel
Hum
%
Delta-T
°C
Wind Press
QNH
hPa
Press
MSL
hPa
Rain
since 9 am
mm
Dir
 
Spd
km/h
Gust
km/h
Spd
kts
Gust
kts
17/11:30pm 22.1 24.8 20.7 92 0.9 NE 7 9 4 5 1017.1 - 0.0
17/11:00pm 21.9 24.5 20.5 92 0.9 NE 7 9 4 5 1017.2 - 0.0
17/10:30pm 22.5 25.6 21.0 91 1.0 NE 6 6 3 3 1017.3 - 0.0
17/10:00pm 22.3 24.9 20.4 89 1.2 NE 7 7 4 4 1017.2 - 0.0
17/09:30pm 21.9 24.3 19.6 87 1.5 NE 6 9 3 5 1017.4 - 0.0
17/09:00pm 22.8 25.4 20.0 84 1.8 NE 6 7 3 4 1017.2 1017.2 0.0
17/08:30pm 23.2 25.7 20.3 84 1.9 NE 7 9 4 5 1017.0 - 0.0
17/08:00pm 23.5 26.0 20.2 82 2.1 NE 7 7 4 4 1016.6 - 0.0
17/07:30pm 24.0 26.7 20.7 82 2.2 NE 7 9 4 5 1016.1 - 0.0
17/07:00pm 24.3 26.5 20.4 79 2.5 NE 9 11 5 6 1015.8 - 0.0
17/06:30pm 24.3 26.9 20.4 79 2.5 ENE 7 11 4 6 1015.4 - 0.0
17/06:00pm 24.7 26.9 20.4 77 2.8 ENE 9 13 5 7 1015.0 1015.0 0.0
17/05:30pm 25.5 27.1 19.9 71 3.6 ENE 11 15 6 8 1014.8 - 0.0
17/05:00pm 26.1 27.1 20.2 70 3.8 ENE 15 19 8 10 1014.6 - 0.0
17/04:30pm 26.2 27.0 19.8 68 4.2 ENE 15 19 8 10 1014.6 - 0.0
17/04:00pm 26.1 27.3 20.7 72 3.5 E 15 19 8 10 1014.4 - 0.0
17/03:30pm 26.5 27.9 21.0 72 3.6 E 15 20 8 11 1014.6 - 0.0
17/03:00pm 26.6 27.8 21.4 73 3.5 E 17 20 9 11 1014.6 1014.6 0.0
17/02:30pm 26.9 28.0 21.2 71 3.8 E 17 22 9 12 1014.7 - 0.0
17/02:00pm 26.8 27.4 20.2 67 4.3 E 17 20 9 11 1014.9 - 0.0
17/01:30pm 27.3 27.8 20.1 64 4.7 E 17 24 9 13 1015.1 - 0.0
17/01:00pm 27.5 28.4 20.8 67 4.4 ENE 17 24 9 13 1015.5 - 0.0
17/12:30pm 27.5 28.0 20.8 67 4.4 E 19 24 10 13 1015.9 - 0.0
17/12:00pm 27.4 28.4 21.0 68 4.2 E 17 22 9 12 1016.2 1016.2 0.0
17/11:30am 28.0 29.4 21.8 69 4.2 E 17 22 9 12 1016.6 - 0.0
17/11:00am 27.8 29.7 22.1 71 3.8 E 15 22 8 12 1017.2 - 0.0
17/10:30am 27.2 28.6 21.9 73 3.6 E 17 22 9 12 1017.6 - 0.0
17/10:00am 27.1 29.1 22.3 75 3.2 ESE 15 20 8 11 1017.8 - 0.0
17/09:30am 26.6 28.5 21.4 73 3.5 ESE 13 17 7 9 1017.6 - 0.0
17/09:00am 25.8 28.4 21.2 76 3.0 SE 9 17 5 9 1017.5 1017.5 0.0
17/08:30am 25.0 27.7 22.1 84 1.9 S 11 15 6 8 1017.2 - 0.0
17/08:00am 23.6 26.6 21.9 90 1.1 SSW 9 11 5 6 1016.8 - 0.0
17/07:30am 22.5 25.3 21.5 94 0.7 SW 9 11 5 6 1016.7 - 0.0
17/07:00am 21.3 23.6 20.6 96 0.5 SW 9 11 5 6 1016.3 - 0.0
17/06:30am 20.6 22.7 20.1 97 0.3 SW 9 13 5 7 1016.0 - 0.0
17/06:00am 20.4 22.4 19.9 97 0.3 SW 9 11 5 6 1015.7 1015.7 0.0
17/05:30am 20.6 22.7 20.1 97 0.3 SW 9 11 5 6 1015.3 - 0.0
17/05:00am 21.1 23.4 20.6 97 0.3 SW 9 11 5 6 1015.0 - 0.0
17/04:30am 21.1 23.3 20.4 96 0.5 SSW 9 11 5 6 1015.0 - 0.0
17/04:00am 20.9 23.4 20.2 96 0.4 SW 7 9 4 5 1014.9 - 0.0
17/03:30am 21.0 23.5 20.2 95 0.5 SW 7 9 4 5 1014.7 - 0.0
17/03:00am 21.3 23.8 20.3 94 0.6 NE 7 9 4 5 1014.7 1014.7 0.0
17/02:30am 21.9 24.3 20.9 94 0.7 NE 9 9 5 5 1014.9 - 0.0
17/02:00am 22.2 25.2 21.2 94 0.7 NE 7 9 4 5 1014.9 - 0.0
17/01:30am 22.1 24.9 20.9 93 0.8 NE 7 9 4 5 1015.1 - 0.0
17/01:00am 22.3 25.2 21.1 93 0.8 NE 7 9 4 5 1015.3 - 0.0
17/12:30am 22.6 25.2 21.2 92 0.9 NE 9 11 5 6 1015.6 - 0.0
17/12:00am 22.7 27.0 21.2 91 1.0 CALM 0 2 0 1 1015.5 1015.5 0.0
 
Date/Time
EST
Temp
°C
App
Temp
°C
Dew
Point
Rel
Hum
%
Delta-T
°C
Wind Press
QNH
hPa
Press
MSL
hPa
Rain
since 9 am
mm
Dir
 
Spd
km/h
Gust
km/h
Spd
kts
Gust
kts
16/11:30pm 22.7 25.7 21.2 91 1.0 ENE 7 9 4 5 1015.4 - 0.0
16/11:00pm 22.8 25.8 21.3 91 1.0 ENE 7 9 4 5 1015.7 - 0.0
16/10:30pm 22.8 25.8 21.3 91 1.0 ENE 7 9 4 5 1015.7 - 0.0
16/10:00pm 23.0 26.0 20.9 88 1.4 ENE 6 7 3 4 1015.8 - 0.0
16/09:30pm 23.1 26.3 20.6 86 1.6 ENE 4 7 2 4 1015.8 - 0.0
16/09:00pm 24.2 26.9 20.7 81 2.3 ENE 7 9 4 5 1015.7 1015.7 0.0
16/08:30pm 24.5 27.3 20.8 80 2.4 NE 7 9 4 5 1015.4 - 0.0
16/08:00pm 24.5 26.9 20.8 80 2.4 NE 9 11 5 6 1015.2 - 0.0
16/07:30pm 24.8 27.1 20.7 78 2.7 ENE 9 11 5 6 1014.8 - 0.0

Other Formats:

Comma delimited format used in spreadsheet applications
http://www.bom.gov.au/fwo/IDQ60801/IDQ60801.95367.axf

JavaScript Object Notation format (JSON) in row-major order
http://www.bom.gov.au/fwo/IDQ60801/IDQ60801.95367.json